Time;durP1;ratioP1;P1;durP2;ratioP2;P2;SDS_P1;SDS_P2;PMS_P1;PMS_P2;Temp;Humidity;BMP_temperature;BMP_pressure;BME280_temperature;BME280_humidity;BME280_pressure;Samples;Min_cycle;Max_cycle;Signal;HPM_P1;HPM_P2
2021/03/15 00:03:57;;;;;;;9.83;3.03;;;;;6.20;100598.00;;;;10457393;28;20250;-77
2021/03/15 00:08:58;;;;;;;17.10;3.47;;;;;6.20;100588.00;;;;10470935;28;20280;-76
2021/03/15 00:14:00;;;;;;;17.03;4.43;;;;;6.20;100586.00;;;;10831298;22;20314;-76
2021/03/15 00:19:03;;;;;;;13.23;4.17;;;;;6.20;100581.00;;;;10391446;28;20680;-76
2021/03/15 00:24:05;;;;;;;13.10;4.00;;;;;6.20;100588.00;;;;10387049;28;20190;-76
2021/03/15 00:29:06;;;;;;;13.40;4.00;;;;;6.20;100577.00;;;;10344360;28;20223;-76
2021/03/15 00:34:08;;;;;;;14.30;4.23;;;;;6.30;100578.00;;;;10338586;28;20222;-76
2021/03/15 00:39:11;;;;;;;13.77;4.43;;;;;6.30;100563.00;;;;10322866;28;20670;-76
2021/03/15 00:44:13;;;;;;;12.43;4.50;;;;;6.30;100559.00;;;;10372245;28;20237;-76
2021/03/15 00:49:14;;;;;;;17.77;4.43;;;;;6.30;100548.00;;;;10411353;28;20183;-76
2021/03/15 00:54:16;;;;;;;15.03;4.27;;;;;6.30;100541.00;;;;10396235;28;20190;-76
2021/03/15 00:59:20;;;;;;;14.47;5.63;;;;;6.30;100541.00;;;;10379582;28;20218;-76
2021/03/15 01:04:21;;;;;;;7.40;4.30;;;;;6.30;100529.00;;;;10396626;28;20285;-76
2021/03/15 01:09:50;;;;;;;18.43;6.27;;;;;6.40;100523.00;;;;10383904;28;20191;-76
2021/03/15 01:15:11;;;;;;;11.53;5.17;;;;;6.40;100521.00;;;;10379831;28;20304;-76
2021/03/15 01:20:19;;;;;;;16.73;6.50;;;;;6.40;100505.00;;;;10340279;28;20207;-76
2021/03/15 01:25:45;;;;;;;11.60;6.37;;;;;6.40;100509.00;;;;10379967;28;20780;-76
2021/03/15 01:30:48;;;;;;;13.40;6.37;;;;;6.50;100507.00;;;;10413450;28;20194;-76
2021/03/15 01:35:49;;;;;;;14.50;8.47;;;;;6.50;100508.00;;;;10354482;28;20211;-76
2021/03/15 01:40:54;;;;;;;19.33;8.63;;;;;6.50;100496.00;;;;10321975;28;20278;-76
2021/03/15 01:45:55;;;;;;;19.93;9.23;;;;;6.60;100487.00;;;;10327253;28;20192;-76
2021/03/15 01:50:57;;;;;;;14.20;5.97;;;;;6.60;100490.00;;;;10403235;28;20191;-75
2021/03/15 01:55:58;;;;;;;20.43;8.30;;;;;6.60;100484.00;;;;10402803;28;20228;-75
2021/03/15 02:00:59;;;;;;;11.27;7.10;;;;;6.60;100476.00;;;;10403167;28;20601;-76
2021/03/15 02:06:02;;;;;;;18.07;9.17;;;;;6.70;100476.00;;;;10385837;28;20191;-76
2021/03/15 02:11:18;;;;;;;14.13;9.13;;;;;6.70;100471.00;;;;10401521;28;20732;-76
2021/03/15 02:16:40;;;;;;;17.70;9.13;;;;;6.70;100465.00;;;;10385015;28;20276;-76
2021/03/15 02:22:08;;;;;;;14.27;8.53;;;;;6.70;100463.00;;;;10412193;28;20740;-75
2021/03/15 02:27:28;;;;;;;18.97;8.67;;;;;6.70;100458.00;;;;10367644;28;20218;-76
2021/03/15 02:32:50;;;;;;;17.27;8.27;;;;;6.70;100464.00;;;;10401823;28;20213;-76
2021/03/15 02:37:58;;;;;;;16.00;8.73;;;;;6.70;100466.00;;;;10401435;28;20687;-76
2021/03/15 02:43:03;;;;;;;15.87;9.40;;;;;6.80;100475.00;;;;10400602;28;20209;-76
2021/03/15 02:48:08;;;;;;;17.07;11.37;;;;;6.80;100478.00;;;;10400292;28;20787;-76
2021/03/15 02:53:14;;;;;;;16.30;11.13;;;;;6.80;100476.00;;;;10400556;28;20645;-76
2021/03/15 02:58:17;;;;;;;23.40;12.47;;;;;6.80;100479.00;;;;10399543;28;20210;-75
2021/03/15 03:03:21;;;;;;;19.80;12.20;;;;;6.80;100491.00;;;;10400514;28;20283;-76
2021/03/15 03:08:25;;;;;;;20.33;9.70;;;;;6.80;100476.00;;;;10400126;28;20226;-76
2021/03/15 03:13:27;;;;;;;14.13;9.10;;;;;6.90;100492.00;;;;10382922;28;20218;-76
2021/03/15 03:18:32;;;;;;;12.33;8.67;;;;;6.90;100500.00;;;;10383627;28;20215;-76
2021/03/15 03:23:36;;;;;;;11.43;6.70;;;;;6.90;100510.00;;;;10399559;28;20187;-76
2021/03/15 03:28:39;;;;;;;14.57;6.73;;;;;6.90;100499.00;;;;10399344;28;20303;-76
2021/03/15 03:33:41;;;;;;;14.17;7.10;;;;;6.90;100534.00;;;;10382890;28;20285;-76
2021/03/15 03:38:44;;;;;;;10.00;6.10;;;;;6.80;100542.00;;;;10398134;28;20681;-76
2021/03/15 03:43:46;;;;;;;11.37;6.20;;;;;6.70;100547.00;;;;10381808;28;20226;-76
2021/03/15 03:48:49;;;;;;;13.27;7.23;;;;;6.70;100554.00;;;;10398332;28;20194;-76
2021/03/15 03:53:57;;;;;;;13.33;6.57;;;;;6.60;100576.00;;;;10398441;28;20233;-76
2021/03/15 03:58:59;;;;;;;11.33;5.63;;;;;6.50;100594.00;;;;10381466;28;20593;-76
2021/03/15 04:04:06;;;;;;;11.50;6.13;;;;;6.50;100592.00;;;;10350186;28;20184;-76
2021/03/15 04:09:14;;;;;;;6.83;4.80;;;;;6.40;100606.00;;;;10381146;28;20194;-76
2021/03/15 04:14:24;;;;;;;13.03;6.73;;;;;6.20;100620.00;;;;10397177;28;20624;-76
2021/03/15 04:19:38;;;;;;;12.33;6.57;;;;;6.10;100617.00;;;;10381300;28;20294;-76
2021/03/15 04:24:41;;;;;;;11.73;6.30;;;;;6.10;100643.00;;;;10380663;28;20199;-77
2021/03/15 04:29:42;;;;;;;7.13;4.97;;;;;6.10;100648.00;;;;10397229;28;20186;-76
2021/03/15 04:34:45;;;;;;;11.80;7.00;;;;;6.10;100658.00;;;;10380115;28;20264;-76
2021/03/15 04:39:49;;;;;;;19.00;7.20;;;;;6.00;100662.00;;;;10364392;28;20313;-76
2021/03/15 04:44:50;;;;;;;10.10;6.43;;;;;6.10;100671.00;;;;10395988;28;20230;-76
2021/03/15 04:49:52;;;;;;;10.37;6.07;;;;;6.10;100679.00;;;;10364753;28;20550;-76
2021/03/15 04:54:54;;;;;;;13.90;8.40;;;;;6.10;100689.00;;;;10379626;28;20197;-76
2021/03/15 04:59:56;;;;;;;8.17;5.80;;;;;6.00;100696.00;;;;10380048;28;20610;-76
2021/03/15 05:05:05;;;;;;;17.90;8.20;;;;;6.00;100698.00;;;;10396491;28;20515;-76
2021/03/15 05:10:08;;;;;;;14.23;8.03;;;;;5.90;100696.00;;;;10395678;28;20669;-76
2021/03/15 05:15:12;;;;;;;13.63;7.30;;;;;5.80;100704.00;;;;10395729;28;20242;-76
2021/03/15 05:20:15;;;;;;;16.07;7.40;;;;;5.70;100705.00;;;;10382218;28;20260;-76
2021/03/15 05:25:17;;;;;;;9.90;7.07;;;;;5.50;100712.00;;;;10404507;28;20195;-76
2021/03/15 05:30:21;;;;;;;11.47;7.70;;;;;5.40;100714.00;;;;10404234;28;20184;-76
2021/03/15 05:35:24;;;;;;;13.73;7.63;;;;;5.30;100724.00;;;;10403688;28;20198;-76
2021/03/15 05:40:26;;;;;;;15.33;7.97;;;;;5.20;100730.00;;;;10420918;28;20758;-76
2021/03/15 05:45:58;;;;;;;11.40;7.03;;;;;5.10;100745.00;;;;10354633;28;20257;-76
2021/03/15 05:50:59;;;;;;;12.93;8.37;;;;;5.00;100748.00;;;;10421100;28;20225;-76
2021/03/15 05:56:28;;;;;;;11.80;7.53;;;;;5.00;100755.00;;;;10370186;28;20593;-76
2021/03/15 06:01:55;;;;;;;15.97;9.80;;;;;5.00;100753.00;;;;10402928;28;20234;-76
2021/03/15 06:07:01;;;;;;;16.20;9.00;;;;;5.00;100766.00;;;;10385997;28;20727;-76
2021/03/15 06:12:09;;;;;;;14.27;8.60;;;;;5.20;100768.00;;;;10402353;28;20585;-77
2021/03/15 06:17:11;;;;;;;12.50;7.53;;;;;5.40;100781.00;;;;10402599;28;20294;-76
2021/03/15 06:22:13;;;;;;;11.83;8.43;;;;;5.50;100777.00;;;;10401819;28;20649;-76
2021/03/15 06:27:16;;;;;;;14.97;7.70;;;;;5.50;100790.00;;;;10369135;28;20215;-76
2021/03/15 06:32:18;;;;;;;17.00;7.97;;;;;5.60;100789.00;;;;10385134;28;20191;-76
2021/03/15 06:37:20;;;;;;;12.83;6.60;;;;;5.60;100793.00;;;;10401492;28;20285;-76
2021/03/15 06:42:22;;;;;;;11.10;7.27;;;;;5.70;100808.00;;;;10402768;28;20281;-76
2021/03/15 06:47:23;;;;;;;9.27;6.67;;;;;5.70;100801.00;;;;10428882;28;20187;-76
2021/03/15 06:52:24;;;;;;;13.70;7.10;;;;;5.80;100819.00;;;;10396878;28;20191;-77
2021/03/15 06:57:28;;;;;;;15.10;7.63;;;;;5.90;100827.00;;;;10421986;28;20200;-77
2021/03/15 07:02:30;;;;;;;16.10;7.50;;;;;5.90;100844.00;;;;10334426;28;20295;-77
2021/03/15 07:07:32;;;;;;;14.90;7.17;;;;;6.10;100856.00;;;;10404683;28;20280;-77
2021/03/15 07:12:33;;;;;;;13.87;7.50;;;;;6.30;100856.00;;;;10370598;28;20612;-76
2021/03/15 07:17:34;;;;;;;15.43;7.77;;;;;6.50;100865.00;;;;10366812;28;20210;-77
2021/03/15 07:22:44;;;;;;;16.30;7.03;;;;;6.50;100865.00;;;;10399829;28;20194;-77
2021/03/15 07:27:52;;;;;;;23.37;8.17;;;;;6.60;100876.00;;;;10383356;28;20811;-77
2021/03/15 07:32:57;;;;;;;17.47;8.10;;;;;6.90;100886.00;;;;10400419;28;20612;-77
2021/03/15 07:37:59;;;;;;;12.30;6.53;;;;;7.50;100902.00;;;;10352649;28;20222;-77
2021/03/15 07:43:16;;;;;;;18.90;7.83;;;;;8.10;100907.00;;;;10397919;28;20205;-77
2021/03/15 07:48:22;;;;;;;11.53;5.03;;;;;8.60;100916.00;;;;10382346;28;20241;-77
2021/03/15 07:54:06;;;;;;;12.43;5.47;;;;;8.40;100930.00;;;;10417334;28;20224;-77
2021/03/15 07:59:08;;;;;;;9.87;5.37;;;;;8.20;100943.00;;;;10347277;28;20206;-77
2021/03/15 08:04:09;;;;;;;13.30;5.43;;;;;8.20;100955.00;;;;10358842;28;20239;-77
2021/03/15 08:09:10;;;;;;;8.43;4.93;;;;;8.30;100962.00;;;;10378710;28;20278;-77
2021/03/15 08:14:12;;;;;;;16.23;4.93;;;;;8.40;100962.00;;;;10396821;28;20230;-77
2021/03/15 08:19:18;;;;;;;10.07;4.70;;;;;8.60;100970.00;;;;10406492;28;20210;-77
2021/03/15 08:24:19;;;;;;;10.50;4.77;;;;;8.60;100970.00;;;;10335447;28;60052;-77
2021/03/15 08:29:21;;;;;;;14.03;5.40;;;;;8.00;100999.00;;;;10324272;28;20242;-77
2021/03/15 08:34:24;;;;;;;11.57;4.37;;;;;8.20;100999.00;;;;10355618;28;20595;-77
2021/03/15 08:39:30;;;;;;;9.97;4.80;;;;;8.80;101013.00;;;;10331476;28;20648;-77
2021/03/15 08:44:45;;;;;;;5.10;2.20;;;;;9.10;101000.00;;;;10318323;28;20196;-77
2021/03/15 08:49:49;;;;;;;7.60;2.40;;;;;10.20;101009.00;;;;10371474;28;20227;-77
2021/03/15 08:54:50;;;;;;;4.43;2.10;;;;;10.40;101001.00;;;;10338199;28;20234;-77
2021/03/15 08:59:51;;;;;;;9.17;2.73;;;;;10.70;101008.00;;;;10356444;28;20503;-77
2021/03/15 09:04:53;;;;;;;5.77;2.03;;;;;11.20;101009.00;;;;10355812;28;20662;-77
2021/03/15 09:09:55;;;;;;;4.67;2.30;;;;;11.30;101010.00;;;;10357410;28;20195;-77
2021/03/15 09:14:57;;;;;;;8.23;2.20;;;;;10.50;101027.00;;;;10341426;28;20760;-77
2021/03/15 09:20:15;;;;;;;10.17;2.47;;;;;11.20;101020.00;;;;10355217;28;20208;-78
2021/03/15 09:25:19;;;;;;;12.10;2.77;;;;;10.80;101017.00;;;;10334432;28;20192;-76
2021/03/15 09:30:35;;;;;;;9.17;2.40;;;;;11.30;101015.00;;;;10313399;28;20227;-76
2021/03/15 09:35:42;;;;;;;5.20;2.10;;;;;12.60;101022.00;;;;10327952;28;20993;-76
2021/03/15 09:40:49;;;;;;;10.93;2.30;;;;;10.90;101033.00;;;;10353993;28;20226;-76
2021/03/15 09:46:12;;;;;;;8.90;2.33;;;;;10.00;101039.00;;;;10329599;28;20651;-76
2021/03/15 09:51:16;;;;;;;12.60;3.33;;;;;10.40;101033.00;;;;10297416;28;20192;-76
2021/03/15 09:56:36;;;;;;;11.93;2.67;;;;;10.50;101036.00;;;;10323939;28;20219;-76
2021/03/15 10:01:46;;;;;;;9.63;2.57;;;;;10.80;101034.00;;;;10291783;28;20216;-76
2021/03/15 10:07:11;;;;;;;9.50;2.10;;;;;10.20;101044.00;;;;10350547;28;20200;-76
2021/03/15 10:12:31;;;;;;;8.43;1.80;;;;;9.60;101063.00;;;;10327082;28;20219;-76
2021/03/15 10:17:51;;;;;;;12.00;2.60;;;;;10.10;101045.00;;;;10366624;28;20206;-76
2021/03/15 10:23:31;;;;;;;12.00;2.37;;;;;11.70;101041.00;;;;10334041;28;20199;-76
2021/03/15 10:28:35;;;;;;;10.50;2.00;;;;;11.10;101049.00;;;;10343902;28;20219;-76
2021/03/15 10:33:54;;;;;;;8.43;2.13;;;;;10.50;101054.00;;;;10343729;28;20192;-76
2021/03/15 10:39:03;;;;;;;7.20;1.90;;;;;10.10;101037.00;;;;10335391;28;20574;-76
2021/03/15 10:44:05;;;;;;;10.13;1.77;;;;;11.00;101047.00;;;;10319852;28;20200;-77
2021/03/15 10:49:23;;;;;;;7.13;2.17;;;;;11.70;101053.00;;;;10337410;28;20288;-77
2021/03/15 10:54:33;;;;;;;12.97;2.20;;;;;10.40;101062.00;;;;10365235;28;20918;-77
2021/03/15 10:59:36;;;;;;;5.20;1.60;;;;;10.90;101035.00;;;;10356399;28;20630;-77
2021/03/15 11:04:43;;;;;;;6.10;2.00;;;;;12.50;101026.00;;;;10350479;28;20210;-77
2021/03/15 11:09:54;;;;;;;4.53;1.30;;;;;12.80;101027.00;;;;10361721;28;20183;-77
2021/03/15 11:15:19;;;;;;;5.83;1.37;;;;;11.10;101056.00;;;;10351294;28;20238;-77
2021/03/15 11:20:46;;;;;;;3.63;1.57;;;;;10.40;101038.00;;;;10358411;28;20211;-77
2021/03/15 11:26:09;;;;;;;7.83;1.63;;;;;11.70;101049.00;;;;10342093;28;20248;-77
2021/03/15 11:31:17;;;;;;;5.57;1.33;;;;;12.30;101045.00;;;;10355806;28;20188;-77
2021/03/15 11:36:23;;;;;;;8.40;1.80;;;;;11.90;101063.00;;;;10340245;28;20196;-77
2021/03/15 11:41:38;;;;;;;4.73;1.20;;;;;11.90;101074.00;;;;10344972;28;20775;-77
2021/03/15 11:46:40;;;;;;;3.20;1.23;;;;;11.50;101084.00;;;;10306112;28;20195;-77
2021/03/15 11:51:54;;;;;;;6.97;1.77;;;;;12.20;101080.00;;;;10362304;28;20673;-77
2021/03/15 11:57:16;;;;;;;4.87;1.13;;;;;11.50;101083.00;;;;10351568;28;20226;-77
2021/03/15 12:02:19;;;;;;;3.73;1.13;;;;;11.90;101075.00;;;;10311276;28;20212;-77
2021/03/15 12:07:23;;;;;;;5.30;1.43;;;;;12.30;101077.00;;;;10320456;28;20199;-77
2021/03/15 12:12:29;;;;;;;3.67;1.33;;;;;12.10;101062.00;;;;9780173;28;20233;-77
2021/03/15 12:17:42;;;;;;;4.77;1.23;;;;;12.10;101072.00;;;;9846819;28;20200;-77
2021/03/15 12:22:46;;;;;;;2.90;1.03;;;;;10.20;101110.00;;;;10319245;28;20709;-77
2021/03/15 12:27:49;;;;;;;7.23;1.43;;;;;9.50;101127.00;;;;10355679;28;20646;-77
2021/03/15 12:32:51;;;;;;;5.90;0.90;;;;;9.50;101130.00;;;;10311971;28;20202;-77
2021/03/15 12:37:54;;;;;;;2.97;1.07;;;;;11.30;101094.00;;;;10344334;28;20209;-76
2021/03/15 12:42:56;;;;;;;5.33;1.33;;;;;10.90;101120.00;;;;10326838;28;20195;-77
2021/03/15 12:48:04;;;;;;;4.10;0.90;;;;;9.80;101118.00;;;;10312537;28;20207;-77
2021/03/15 12:53:07;;;;;;;4.73;1.30;;;;;10.20;101135.00;;;;10323437;28;20754;-76
2021/03/15 12:58:21;;;;;;;2.27;0.87;;;;;9.50;101138.00;;;;10325049;28;20305;-76
2021/03/15 13:03:34;;;;;;;4.53;0.80;;;;;10.50;101138.00;;;;10317983;28;20214;-77
2021/03/15 13:08:36;;;;;;;3.90;1.50;;;;;12.90;101122.00;;;;10348461;28;20188;-77
2021/03/15 13:13:55;;;;;;;6.17;1.23;;;;;12.40;101137.00;;;;10336723;28;20229;-77
2021/03/15 13:19:05;;;;;;;6.63;1.20;;;;;10.40;101178.00;;;;10329548;28;20651;-76
2021/03/15 13:24:12;;;;;;;3.67;1.43;;;;;8.30;101207.00;;;;10328245;28;20227;-77
2021/03/15 13:29:18;;;;;;;1.83;1.10;;;;;8.20;101210.00;;;;10335589;28;20192;-77
2021/03/15 13:34:19;;;;;;;5.70;1.03;;;;;9.60;101215.00;;;;10333559;28;20196;-76
2021/03/15 13:39:22;;;;;;;5.30;1.23;;;;;9.10;101234.00;;;;10329225;28;20206;-76
2021/03/15 13:44:24;;;;;;;3.17;0.80;;;;;8.60;101232.00;;;;10301141;28;20208;-76
2021/03/15 13:49:29;;;;;;;4.73;1.17;;;;;10.10;101225.00;;;;10345089;28;20215;-78
2021/03/15 13:54:36;;;;;;;3.33;0.90;;;;;11.20;101213.00;;;;10331770;28;20200;-77
2021/03/15 13:59:37;;;;;;;4.50;0.97;;;;;9.80;101214.00;;;;10339514;28;20524;-77
2021/03/15 14:04:40;;;;;;;5.63;1.00;;;;;8.40;101236.00;;;;10365787;28;20224;-77
2021/03/15 14:09:45;;;;;;;2.33;0.80;;;;;7.80;101245.00;;;;10356258;28;20507;-77
2021/03/15 14:14:56;;;;;;;1.33;0.70;;;;;7.80;101266.00;;;;10348784;28;20222;-76
2021/03/15 14:20:09;;;;;;;4.57;1.20;;;;;9.20;101279.00;;;;10341043;28;20215;-77
2021/03/15 14:25:14;;;;;;;4.27;1.20;;;;;10.40;101270.00;;;;10336146;28;20200;-77
2021/03/15 14:30:42;;;;;;;6.17;1.70;;;;;11.70;101268.00;;;;10303960;28;20200;-77
2021/03/15 14:35:44;;;;;;;5.07;1.80;;;;;14.50;101238.00;;;;10345492;28;20262;-77
2021/03/15 14:41:02;;;;;;;4.60;1.00;;;;;12.70;101266.00;;;;10328538;28;20211;-77
2021/03/15 14:46:05;;;;;;;5.23;1.27;;;;;11.00;101264.00;;;;10336290;28;20295;-76
2021/03/15 14:51:32;;;;;;;6.77;1.67;;;;;10.60;101266.00;;;;10340979;28;20196;-77
2021/03/15 14:56:45;;;;;;;6.10;1.37;;;;;10.00;101284.00;;;;10335302;28;20893;-77
2021/03/15 15:01:55;;;;;;;8.77;1.30;;;;;9.60;101287.00;;;;10344868;28;20709;-77
2021/03/15 15:07:07;;;;;;;6.30;1.10;;;;;9.10;101303.00;;;;10332715;28;20204;-77
2021/03/15 15:12:19;;;;;;;4.73;1.30;;;;;8.70;101319.00;;;;10362343;28;20246;-77
2021/03/15 15:17:31;;;;;;;4.90;1.10;;;;;8.50;101333.00;;;;10336110;28;20300;-76
2021/03/15 15:22:32;;;;;;;10.83;1.60;;;;;8.60;101346.00;;;;10343482;28;20204;-77
2021/03/15 15:27:35;;;;;;;6.80;1.53;;;;;8.90;101342.00;;;;10352785;28;20223;-76
2021/03/15 15:32:36;;;;;;;2.17;1.17;;;;;9.60;101338.00;;;;10365366;28;20325;-77
2021/03/15 15:37:38;;;;;;;6.10;1.47;;;;;9.20;101337.00;;;;10335207;28;20244;-76
2021/03/15 15:42:39;;;;;;;6.53;1.57;;;;;9.60;101342.00;;;;10339592;28;20191;-77
2021/03/15 15:47:43;;;;;;;6.90;1.47;;;;;9.90;101336.00;;;;10299351;28;20602;-77
2021/03/15 15:52:45;;;;;;;6.20;1.70;;;;;10.10;101346.00;;;;10322658;28;20199;-77
2021/03/15 15:57:57;;;;;;;7.73;1.50;;;;;9.70;101355.00;;;;10336123;28;20191;-77
2021/03/15 16:02:58;;;;;;;8.17;1.70;;;;;9.50;101351.00;;;;10321277;28;20247;-76
2021/03/15 16:08:02;;;;;;;6.07;1.50;;;;;9.40;101357.00;;;;10347983;28;20211;-77
2021/03/15 16:13:03;;;;;;;71.17;34.07;;;;;8.50;101377.00;;;;10337574;28;20744;-76
2021/03/15 16:18:06;;;;;;;5.27;1.93;;;;;8.00;101387.00;;;;10328958;28;20204;-76
2021/03/15 16:23:09;;;;;;;5.97;1.70;;;;;7.60;101407.00;;;;10371751;28;20187;-77
2021/03/15 16:28:10;;;;;;;4.57;1.53;;;;;7.30;101415.00;;;;10292120;28;20307;-76
2021/03/15 16:33:12;;;;;;;6.13;1.80;;;;;7.10;101420.00;;;;10353349;28;20226;-76
2021/03/15 16:38:14;;;;;;;10.30;2.03;;;;;7.10;101416.00;;;;10347730;28;20294;-76
2021/03/15 16:43:15;;;;;;;4.77;1.50;;;;;7.20;101430.00;;;;10321050;28;20558;-76
2021/03/15 16:48:17;;;;;;;10.60;3.27;;;;;7.20;101445.00;;;;10336728;28;20247;-76
2021/03/15 16:53:18;;;;;;;7.50;1.83;;;;;7.30;101439.00;;;;10337856;28;20322;-76
2021/03/15 16:58:20;;;;;;;6.97;1.47;;;;;7.40;101445.00;;;;10330260;28;20208;-77
2021/03/15 17:03:21;;;;;;;11.43;2.07;;;;;7.60;101445.00;;;;10373100;28;20187;-76
2021/03/15 17:08:23;;;;;;;4.67;1.37;;;;;7.40;101469.00;;;;10322813;28;20645;-77
2021/03/15 17:13:25;;;;;;;8.27;1.37;;;;;6.70;101485.00;;;;10322009;28;20286;-77
2021/03/15 17:18:27;;;;;;;8.87;2.10;;;;;6.00;101515.00;;;;10348672;28;20657;-78
2021/03/15 17:23:28;;;;;;;9.30;1.80;;;;;5.80;101519.00;;;;10364723;28;20254;-77
2021/03/15 17:28:29;;;;;;;8.00;2.50;;;;;5.60;101528.00;;;;10359022;28;20184;-77
2021/03/15 17:33:31;;;;;;;4.13;1.07;;;;;5.50;101535.00;;;;10374281;28;20194;-77
2021/03/15 17:38:34;;;;;;;4.07;1.03;;;;;5.50;101543.00;;;;10395626;28;20207;-77
2021/03/15 17:43:37;;;;;;;6.00;1.27;;;;;5.50;101544.00;;;;10362787;28;20269;-77
2021/03/15 17:48:38;;;;;;;10.63;1.57;;;;;5.50;101549.00;;;;10320905;28;20655;-77
2021/03/15 17:53:41;;;;;;;10.57;2.20;;;;;5.40;101562.00;;;;10363397;28;20205;-77
2021/03/15 17:58:42;;;;;;;5.67;1.60;;;;;5.40;101576.00;;;;10362076;28;20208;-77
2021/03/15 18:03:44;;;;;;;9.17;1.53;;;;;5.50;101582.00;;;;10346473;28;20191;-77
2021/03/15 18:08:46;;;;;;;7.87;2.03;;;;;5.50;101587.00;;;;10353442;28;20229;-76
2021/03/15 18:13:58;;;;;;;8.50;1.87;;;;;5.60;101593.00;;;;10321062;28;20231;-77
2021/03/15 18:19:01;;;;;;;7.80;2.47;;;;;5.80;101601.00;;;;10361803;28;20207;-77
2021/03/15 18:24:03;;;;;;;9.37;2.17;;;;;5.90;101592.00;;;;10361158;28;20227;-77
2021/03/15 18:29:08;;;;;;;9.70;2.20;;;;;5.90;101613.00;;;;10360057;28;20274;-77
2021/03/15 18:34:10;;;;;;;9.47;2.20;;;;;6.00;101601.00;;;;10360712;28;20195;-77
2021/03/15 18:39:12;;;;;;;9.77;2.47;;;;;6.00;101619.00;;;;10328277;28;20682;-77
2021/03/15 18:44:13;;;;;;;9.40;1.90;;;;;5.90;101625.00;;;;10361024;28;20223;-76
2021/03/15 18:49:14;;;;;;;8.63;2.00;;;;;6.00;101630.00;;;;10344377;28;20192;-76
2021/03/15 18:54:15;;;;;;;12.60;2.00;;;;;6.00;101632.00;;;;10342388;28;20196;-76
2021/03/15 18:59:17;;;;;;;4.83;1.77;;;;;6.00;101635.00;;;;10329871;28;20858;-76
2021/03/15 19:04:19;;;;;;;14.27;2.37;;;;;5.90;101640.00;;;;10343252;28;20198;-76
2021/03/15 19:09:20;;;;;;;7.30;1.90;;;;;5.90;101647.00;;;;10359519;28;20734;-76
2021/03/15 19:14:22;;;;;;;8.80;1.87;;;;;5.90;101652.00;;;;10343361;28;20652;-76
2021/03/15 19:19:23;;;;;;;9.57;2.03;;;;;5.90;101657.00;;;;10358663;28;20294;-76
2021/03/15 19:24:24;;;;;;;11.40;1.60;;;;;5.90;101662.00;;;;10310502;28;20242;-76
2021/03/15 19:29:26;;;;;;;7.47;2.00;;;;;6.00;101668.00;;;;10358521;28;20192;-76
2021/03/15 19:34:27;;;;;;;12.77;2.77;;;;;5.90;101672.00;;;;10358256;28;20266;-76
2021/03/15 19:39:29;;;;;;;13.57;2.80;;;;;5.90;101679.00;;;;10357673;28;20215;-76
2021/03/15 19:44:30;;;;;;;13.57;2.10;;;;;5.90;101682.00;;;;10357875;28;20196;-76
2021/03/15 19:49:32;;;;;;;8.03;2.23;;;;;5.90;101694.00;;;;10341184;28;20282;-76
2021/03/15 19:54:33;;;;;;;8.50;2.10;;;;;5.90;101696.00;;;;10357568;28;20713;-76
2021/03/15 19:59:34;;;;;;;8.17;2.30;;;;;6.00;101692.00;;;;10340812;28;20625;-76
2021/03/15 20:04:38;;;;;;;11.50;2.13;;;;;6.00;101676.00;;;;10341953;28;20230;-76
2021/03/15 20:09:39;;;;;;;8.90;2.40;;;;;5.80;101696.00;;;;10324347;28;20311;-76
2021/03/15 20:14:41;;;;;;;5.53;1.90;;;;;5.70;101706.00;;;;10340364;28;20226;-76
2021/03/15 20:19:42;;;;;;;15.17;2.67;;;;;5.80;101708.00;;;;10356896;28;20222;-76
2021/03/15 20:24:48;;;;;;;8.87;2.13;;;;;5.80;101700.00;;;;10340444;28;20202;-77
2021/03/15 20:29:50;;;;;;;7.90;2.17;;;;;5.80;101715.00;;;;10308278;28;20222;-76
2021/03/15 20:34:52;;;;;;;10.33;3.37;;;;;5.80;101717.00;;;;10357014;28;20226;-76
2021/03/15 20:39:53;;;;;;;9.73;2.00;;;;;5.80;101737.00;;;;10355920;28;20203;-76
2021/03/15 20:44:55;;;;;;;10.00;2.63;;;;;5.90;101740.00;;;;10321545;28;20322;-76
2021/03/15 20:49:56;;;;;;;11.73;2.40;;;;;6.00;101735.00;;;;10339680;28;20708;-76
2021/03/15 20:55:09;;;;;;;7.10;2.63;;;;;6.00;101736.00;;;;10324503;28;20662;-77
2021/03/15 21:00:14;;;;;;;7.37;2.03;;;;;6.00;101746.00;;;;10339885;28;20261;-76
2021/03/15 21:05:18;;;;;;;14.00;1.83;;;;;6.00;101749.00;;;;10337367;28;20203;-76
2021/03/15 21:10:21;;;;;;;16.20;2.43;;;;;6.00;101750.00;;;;10332664;28;20243;-76
2021/03/15 21:15:23;;;;;;;11.80;2.63;;;;;6.10;101759.00;;;;10340236;28;20231;-76
2021/03/15 21:20:27;;;;;;;13.33;2.80;;;;;6.10;101766.00;;;;10318610;28;20235;-76
2021/03/15 21:25:30;;;;;;;15.43;3.60;;;;;6.00;101758.00;;;;10331512;28;20218;-77
2021/03/15 21:30:35;;;;;;;12.87;2.70;;;;;6.00;101773.00;;;;10282482;28;20555;-76
2021/03/15 21:35:39;;;;;;;13.30;2.87;;;;;5.90;101778.00;;;;10319061;28;20543;-76
2021/03/15 21:40:40;;;;;;;10.73;3.43;;;;;6.00;101779.00;;;;10354653;28;20204;-76
2021/03/15 21:45:43;;;;;;;15.53;3.00;;;;;6.00;101777.00;;;;10354646;28;20258;-76
2021/03/15 21:50:45;;;;;;;13.47;3.30;;;;;6.00;101786.00;;;;10355486;28;20595;-76
2021/03/15 21:55:54;;;;;;;10.60;2.73;;;;;6.10;101782.00;;;;10323446;28;20631;-76
2021/03/15 22:00:56;;;;;;;13.40;2.30;;;;;6.10;101786.00;;;;10355684;28;20250;-76
2021/03/15 22:05:58;;;;;;;8.10;2.53;;;;;6.10;101792.00;;;;10362184;28;20192;-76
2021/03/15 22:11:02;;;;;;;14.97;3.20;;;;;6.00;101796.00;;;;10345364;28;20191;-76
2021/03/15 22:16:03;;;;;;;10.93;2.70;;;;;5.90;101802.00;;;;10361595;28;20633;-76
2021/03/15 22:21:05;;;;;;;16.43;2.60;;;;;5.80;101802.00;;;;10331523;28;20247;-77
2021/03/15 22:26:19;;;;;;;11.33;2.20;;;;;5.80;101805.00;;;;10347396;28;20192;-76
2021/03/15 22:31:20;;;;;;;12.43;3.57;;;;;5.70;101792.00;;;;10328560;28;20191;-76
2021/03/15 22:36:22;;;;;;;15.10;3.83;;;;;5.70;101796.00;;;;10360717;28;20192;-76
2021/03/15 22:41:24;;;;;;;14.67;2.87;;;;;5.80;101798.00;;;;10360795;28;20215;-76
2021/03/15 22:46:25;;;;;;;11.83;2.70;;;;;5.80;101805.00;;;;10344646;28;20534;-76
2021/03/15 22:51:27;;;;;;;20.83;3.17;;;;;5.80;101815.00;;;;10328066;28;20295;-76
2021/03/15 22:56:40;;;;;;;17.00;3.17;;;;;5.70;101812.00;;;;10359974;28;20196;-76
2021/03/15 23:01:44;;;;;;;14.33;3.03;;;;;5.70;101820.00;;;;10359764;28;20243;-77
2021/03/15 23:06:47;;;;;;;14.47;2.70;;;;;5.60;101824.00;;;;10327070;28;20206;-76
2021/03/15 23:11:52;;;;;;;14.97;3.37;;;;;5.50;101823.00;;;;10358989;28;20214;-76
2021/03/15 23:16:53;;;;;;;11.60;2.47;;;;;5.40;101831.00;;;;10358824;28;20219;-76
2021/03/15 23:21:55;;;;;;;13.03;3.03;;;;;5.40;101825.00;;;;10327282;28;20559;-76
2021/03/15 23:27:05;;;;;;;21.40;3.20;;;;;5.40;101826.00;;;;10342682;28;20363;-77
2021/03/15 23:32:08;;;;;;;15.17;2.80;;;;;5.50;101830.00;;;;10342119;28;20254;-76
2021/03/15 23:37:10;;;;;;;22.93;3.93;;;;;5.60;101831.00;;;;10326150;28;20199;-76
2021/03/15 23:42:13;;;;;;;13.50;3.13;;;;;5.70;101841.00;;;;10341616;28;20199;-76
2021/03/15 23:47:18;;;;;;;16.13;3.90;;;;;5.80;101843.00;;;;10373463;28;20234;-76
2021/03/15 23:52:20;;;;;;;12.87;2.70;;;;;5.80;101844.00;;;;10357550;28;20179;-76
2021/03/15 23:57:44;;;;;;;13.40;3.33;;;;;5.80;101854.00;;;;10357140;28;20786;-76
